Airfield :
LOGIN :

Register | Disclaimer

   EN    FR    IT 

 










Legend :    VFR   Marginal VFR   IFR   Intensive IFR   Very Intensive IFR
Visi :
Ceiling :
>= 8 km
>= 3000ft
5 to 8 km
1000 to 3000 ft
1500m to 5 km
500 to 1000 ft
800 to 1500m
200 to 500 ft
< 800m
< 200 ft
Symbols :   Thunderstorms  Fog  Heavy snow  Heavy precipitations  Wind > 20 kt
SIGMETs :     Misc.  Thunderstorms  Icing  Turbulence  Mountain Waves  Volcanic Ashes







- Airport Elevation : 87 ft
- IATA code : FSC
- Download approach charts


LFKF - Figari

CURRENT METAR :
  • 250630Z AUTO 24010KT CAVOK 20/15 Q1015 NOSIG

EXPIRED METARs :
  • 250600Z AUTO 23009KT CAVOK 19/16 Q1015 NOSIG
  • 250530Z AUTO 23008KT CAVOK 18/15 Q1014 NOSIG
  • 250500Z AUTO 27004KT 240V310 CAVOK 17/14 Q1014 TEMPO 24015KT
  • 250430Z AUTO 23008KT CAVOK 17/14 Q1014 NOSIG
  • 250400Z AUTO 22014KT CAVOK 18/15 Q1014 NOSIG

TAF TAF LFKF
Valid from the 25 at 03:00 until the 26 at 03:00 UTC


250200Z 2503/2603 24010KT CAVOK
TEMPO 2503/2506 24015KT 9999 SCT030 BKN250
BECMG 2518/2520 04004KT
No reported NOTAMs for that airfield.



MET'MAP, your aeronautical weather chart ! - Copyright ORBIFLY December 2007 - Disclaimer

ORBIFLY MET'MAP TEAM :

Programming & Development : Alexandra Zaïnal
Concept & Development : Baudouin d'Aumeries
Co-Development & Prog : Marc-Olivier Méhu
Technical & hardware support : Manuel Goepfert

Contact : metmap@orbifly.com




SOURCES & CREDITS :

   NOAA